Time;durP1;ratioP1;P1;durP2;ratioP2;P2;SDS_P1;SDS_P2;PMS_P1;PMS_P2;Temp;Humidity;BMP_temperature;BMP_pressure;BME280_temperature;BME280_humidity;BME280_pressure;Samples;Min_cycle;Max_cycle;Signal;HPM_P1;HPM_P2
2022/08/18 00:00:13;;;;;;;5.90;5.27;;;23.60;99.90;;;;;;5091146;28;20723;-92
2022/08/18 00:02:41;;;;;;;5.50;5.20;;;23.50;99.90;;;;;;5087548;28;20700;-92
2022/08/18 00:05:08;;;;;;;7.10;6.40;;;23.50;99.90;;;;;;5088842;28;20632;-92
2022/08/18 00:07:37;;;;;;;6.40;5.80;;;23.50;99.90;;;;;;5090658;28;20663;-92
2022/08/18 00:10:06;;;;;;;5.87;5.40;;;23.50;99.90;;;;;;5090579;28;21174;-94
2022/08/18 00:12:36;;;;;;;5.83;5.33;;;23.50;99.90;;;;;;5089475;28;20684;-93
2022/08/18 00:15:06;;;;;;;6.57;6.07;;;23.50;99.90;;;;;;5089476;28;21032;-93
2022/08/18 00:17:35;;;;;;;5.90;5.50;;;23.50;99.90;;;;;;5089451;28;20644;-93
2022/08/18 00:20:02;;;;;;;6.10;5.60;;;23.50;99.90;;;;;;5090532;28;21198;-94
2022/08/18 00:22:29;;;;;;;5.20;4.80;;;23.50;99.90;;;;;;5091157;28;20960;-93
2022/08/18 00:24:57;;;;;;;6.43;5.93;;;23.60;99.90;;;;;;5089733;28;20965;-94
2022/08/18 00:27:26;;;;;;;5.17;4.87;;;23.60;99.90;;;;;;5086637;28;20644;-95
2022/08/18 00:29:54;;;;;;;5.03;4.63;;;23.60;99.90;;;;;;5089590;28;20978;-93
2022/08/18 00:32:23;;;;;;;6.07;5.57;;;23.50;99.90;;;;;;5086465;28;20805;-94
2022/08/18 00:34:52;;;;;;;5.53;5.10;;;23.60;99.90;;;;;;5089325;28;20714;-94
2022/08/18 00:37:20;;;;;;;6.07;5.67;;;23.60;99.90;;;;;;5087088;28;20666;-94
2022/08/18 00:39:47;;;;;;;7.87;4.73;;;23.60;99.90;;;;;;5089665;28;20874;-94
2022/08/18 00:42:16;;;;;;;6.10;5.60;;;23.60;99.90;;;;;;5092182;28;20634;-94
2022/08/18 00:44:44;;;;;;;6.43;5.93;;;23.60;99.90;;;;;;5089086;28;20631;-94
2022/08/18 00:47:11;;;;;;;5.37;5.00;;;23.60;99.90;;;;;;5088857;28;20652;-93
2022/08/18 00:49:41;;;;;;;5.20;4.70;;;23.50;99.90;;;;;;5092067;28;20622;-94
2022/08/18 00:52:15;;;;;;;6.27;5.77;;;23.50;99.90;;;;;;5093496;28;20655;-94
2022/08/18 00:54:43;;;;;;;5.40;5.00;;;23.50;99.90;;;;;;5092655;28;20634;-95
2022/08/18 00:57:13;;;;;;;5.70;5.20;;;23.60;99.90;;;;;;5090725;28;21190;-93
2022/08/18 00:59:45;;;;;;;5.97;5.53;;;23.60;99.90;;;;;;5089099;28;20987;-92
2022/08/18 01:02:18;;;;;;;6.80;5.37;;;23.50;99.90;;;;;;5090659;28;21193;-93
2022/08/18 01:04:53;;;;;;;5.33;4.93;;;23.50;99.90;;;;;;5089299;28;21125;-94
2022/08/18 01:07:28;;;;;;;5.67;5.27;;;23.50;99.90;;;;;;5093238;28;20677;-94
2022/08/18 01:09:58;;;;;;;5.43;5.03;;;23.50;99.90;;;;;;5094093;28;20634;-94
2022/08/18 01:12:25;;;;;;;5.40;5.00;;;23.50;99.90;;;;;;5074410;28;20694;-94
2022/08/18 01:14:53;;;;;;;4.80;4.53;;;23.50;99.90;;;;;;5093390;28;20650;-94
2022/08/18 01:23:00;;;;;;;5.30;4.90;;;23.50;99.90;;;;;;5092771;28;21311;-95
2022/08/18 01:28:17;;;;;;;6.50;5.13;;;23.50;99.90;;;;;;5096967;28;21005;-95
2022/08/18 01:30:49;;;;;;;5.40;5.00;;;23.60;99.90;;;;;;5090293;28;20648;-94
2022/08/18 01:33:16;;;;;;;6.00;5.50;;;23.50;99.90;;;;;;5083863;28;20675;-95
2022/08/18 01:35:48;;;;;;;4.13;3.83;;;23.50;99.90;;;;;;5093683;28;20647;-94
2022/08/18 01:38:18;;;;;;;5.33;4.83;;;23.50;99.90;;;;;;5090988;28;20628;-94
2022/08/18 01:40:45;;;;;;;5.00;4.60;;;23.40;99.90;;;;;;5094215;28;20627;-94
2022/08/18 01:43:13;;;;;;;4.27;4.07;;;23.40;99.90;;;;;;5090063;28;20697;-93
2022/08/18 01:45:41;;;;;;;5.43;5.03;;;23.40;99.90;;;;;;5085584;28;20623;-93
2022/08/18 01:48:08;;;;;;;5.30;4.93;;;23.40;99.90;;;;;;5092712;28;20619;-95
2022/08/18 01:50:38;;;;;;;5.13;4.60;;;23.40;99.90;;;;;;5094133;28;20616;-95
2022/08/18 01:53:06;;;;;;;4.27;3.97;;;23.50;99.90;;;;;;5092182;28;20659;-94
2022/08/18 01:55:35;;;;;;;5.10;4.70;;;23.50;99.90;;;;;;5095677;28;20670;-94
2022/08/18 01:58:03;;;;;;;4.40;4.20;;;23.50;99.90;;;;;;5096940;28;20627;-94
2022/08/18 02:00:31;;;;;;;5.13;4.73;;;23.50;99.90;;;;;;5096223;28;20640;-94
2022/08/18 02:02:58;;;;;;;5.87;5.47;;;23.40;99.90;;;;;;5092202;28;21234;-94
2022/08/18 02:05:33;;;;;;;5.07;4.67;;;23.50;99.90;;;;;;5091855;28;20744;-93
2022/08/18 02:08:00;;;;;;;5.50;5.20;;;23.40;99.90;;;;;;5090442;28;20641;-93
2022/08/18 02:10:27;;;;;;;7.13;5.60;;;23.40;99.90;;;;;;5094688;28;20608;-93
2022/08/18 02:12:56;;;;;;;4.87;4.57;;;23.50;99.90;;;;;;5099519;28;20722;-95
2022/08/18 02:15:23;;;;;;;4.70;4.40;;;23.40;99.90;;;;;;5102077;28;20623;-94
2022/08/18 02:17:49;;;;;;;4.37;4.17;;;23.40;99.90;;;;;;5099858;28;20620;-96
2022/08/18 02:20:18;;;;;;;4.77;4.47;;;23.40;99.90;;;;;;5100297;28;20719;-96
2022/08/18 02:22:47;;;;;;;5.37;4.97;;;23.40;99.90;;;;;;5082060;28;20627;-96
2022/08/18 02:25:15;;;;;;;4.50;3.90;;;23.40;99.90;;;;;;5097304;28;20628;-95
2022/08/18 02:27:42;;;;;;;4.47;4.17;;;23.40;99.90;;;;;;5095421;28;20663;-95
2022/08/18 02:30:15;;;;;;;4.47;4.17;;;23.30;99.90;;;;;;5094306;28;21219;-96
2022/08/18 02:32:42;;;;;;;4.70;4.30;;;23.40;99.90;;;;;;5089773;28;20734;-95
2022/08/18 02:35:11;;;;;;;4.57;4.27;;;23.40;99.90;;;;;;5093113;28;20979;-95
2022/08/18 02:37:38;;;;;;;4.67;4.23;;;23.40;99.90;;;;;;5088578;28;21220;-96
2022/08/18 02:40:06;;;;;;;4.97;4.67;;;23.40;99.90;;;;;;5092887;28;20624;-96
2022/08/18 02:42:33;;;;;;;4.20;3.90;;;23.40;99.90;;;;;;5093186;28;20662;-95
2022/08/18 02:45:00;;;;;;;4.93;4.53;;;23.40;99.90;;;;;;5092053;28;20715;-95
2022/08/18 02:47:28;;;;;;;5.03;4.63;;;23.40;99.90;;;;;;5091098;28;20771;-95
2022/08/18 02:49:55;;;;;;;4.80;4.50;;;23.30;99.90;;;;;;5091546;28;20700;-93
2022/08/18 02:52:24;;;;;;;5.23;4.40;;;23.30;99.90;;;;;;5093036;28;20659;-94
2022/08/18 02:54:51;;;;;;;5.47;4.97;;;23.40;99.90;;;;;;5092047;28;21171;-95
2022/08/18 02:57:21;;;;;;;6.73;6.23;;;23.40;99.90;;;;;;5093048;28;20738;-95
2022/08/18 02:59:48;;;;;;;7.33;6.70;;;22.90;99.90;;;;;;5089005;28;20628;-95
2022/08/18 03:02:14;;;;;;;7.77;7.00;;;22.40;99.90;;;;;;5092401;28;21048;-95
2022/08/18 03:04:43;;;;;;;8.23;5.80;;;22.20;99.90;;;;;;5091495;28;20646;-95
2022/08/18 03:07:10;;;;;;;5.90;5.37;;;22.20;99.90;;;;;;5092257;28;20694;-96
2022/08/18 03:09:37;;;;;;;6.13;5.53;;;22.30;99.90;;;;;;5092889;28;20632;-95
2022/08/18 03:12:06;;;;;;;6.23;5.67;;;22.20;99.90;;;;;;5090846;28;20632;-96
2022/08/18 03:14:34;;;;;;;6.27;5.87;;;22.30;99.90;;;;;;5090511;28;20668;-95
2022/08/18 03:17:04;;;;;;;6.47;5.90;;;22.30;99.90;;;;;;5085763;28;20653;-95
2022/08/18 03:19:32;;;;;;;7.13;6.20;;;22.20;99.90;;;;;;5091258;28;20612;-95
2022/08/18 03:22:01;;;;;;;6.50;6.10;;;22.10;99.90;;;;;;5091082;28;22189;-95
2022/08/18 03:24:35;;;;;;;6.77;6.27;;;21.90;99.90;;;;;;5091692;28;20644;-96
2022/08/18 03:27:05;;;;;;;5.37;4.97;;;21.80;99.90;;;;;;5090056;28;20666;-95
2022/08/18 03:29:33;;;;;;;6.10;5.60;;;21.90;99.90;;;;;;5090554;28;20620;-96
2022/08/18 03:32:01;;;;;;;7.00;6.50;;;21.90;99.90;;;;;;5090225;28;21341;-95
2022/08/18 03:34:28;;;;;;;6.07;5.67;;;21.70;99.90;;;;;;5090080;28;21261;-95
2022/08/18 03:36:55;;;;;;;6.23;5.80;;;21.60;99.90;;;;;;5091413;28;20680;-95
2022/08/18 03:39:23;;;;;;;7.30;6.80;;;21.60;99.90;;;;;;5090376;28;20736;-95
2022/08/18 03:41:53;;;;;;;7.20;6.70;;;21.50;99.90;;;;;;5091879;28;20639;-95
2022/08/18 03:44:21;;;;;;;6.63;5.00;;;21.40;99.90;;;;;;5091547;28;20640;-96
2022/08/18 03:46:49;;;;;;;5.10;4.70;;;21.50;99.90;;;;;;5090222;28;20705;-95
2022/08/18 03:49:17;;;;;;;6.73;5.63;;;21.80;99.90;;;;;;5090992;28;20640;-95
2022/08/18 03:51:46;;;;;;;6.60;6.10;;;21.90;99.90;;;;;;5085419;28;20685;-95
2022/08/18 03:54:15;;;;;;;7.80;7.20;;;21.90;99.90;;;;;;5087277;28;20724;-96
2022/08/18 03:56:45;;;;;;;7.60;7.10;;;21.60;99.90;;;;;;5092709;28;20769;-95
2022/08/18 03:59:15;;;;;;;8.20;7.70;;;21.30;99.90;;;;;;5088317;28;20782;-96
2022/08/18 04:01:43;;;;;;;6.50;6.10;;;20.90;99.90;;;;;;5090819;28;20636;-96
2022/08/18 04:04:12;;;;;;;5.90;5.50;;;21.00;99.90;;;;;;5088394;28;20616;-95
2022/08/18 04:06:42;;;;;;;6.90;6.23;;;21.20;99.90;;;;;;5086487;28;20663;-95
2022/08/18 04:09:12;;;;;;;6.67;6.20;;;21.50;99.90;;;;;;5091351;28;20723;-96
2022/08/18 04:11:41;;;;;;;6.60;6.10;;;21.70;99.90;;;;;;5086962;28;20719;-94
2022/08/18 04:14:11;;;;;;;7.57;6.90;;;21.70;99.90;;;;;;5089272;28;21417;-94
2022/08/18 04:16:39;;;;;;;6.37;5.87;;;21.50;99.90;;;;;;5088879;28;21000;-96
2022/08/18 04:19:07;;;;;;;5.70;5.30;;;21.30;99.90;;;;;;5086054;28;20715;-95
2022/08/18 04:21:36;;;;;;;6.10;5.50;;;21.30;99.90;;;;;;5091298;28;21407;-95
2022/08/18 04:24:04;;;;;;;7.40;6.70;;;21.20;99.90;;;;;;5090537;28;21178;-95
2022/08/18 04:26:32;;;;;;;7.87;7.37;;;20.90;99.90;;;;;;5089606;28;20667;-95
2022/08/18 04:29:01;;;;;;;5.83;5.43;;;20.70;99.90;;;;;;5090036;28;20714;-96
2022/08/18 04:31:31;;;;;;;6.77;6.17;;;20.80;99.90;;;;;;5091084;28;20643;-96
2022/08/18 04:33:59;;;;;;;6.70;6.10;;;20.80;99.90;;;;;;5088210;28;20763;-96
2022/08/18 04:36:27;;;;;;;6.73;6.30;;;20.80;99.90;;;;;;5087109;28;20666;-95
2022/08/18 04:38:58;;;;;;;6.27;5.70;;;21.00;99.90;;;;;;5090324;28;20629;-95
2022/08/18 04:41:26;;;;;;;6.60;6.00;;;21.00;99.90;;;;;;5088723;28;20662;-81
2022/08/18 04:43:53;;;;;;;6.30;5.80;;;21.00;99.90;;;;;;5085796;28;20651;-81
2022/08/18 04:46:20;;;;;;;7.60;5.47;;;20.60;99.90;;;;;;5083499;28;20654;-82
2022/08/18 04:48:49;;;;;;;6.20;5.70;;;20.40;99.90;;;;;;5081078;28;21069;-81
2022/08/18 04:51:19;;;;;;;8.53;7.67;;;20.10;99.90;;;;;;5087026;28;20628;-83
2022/08/18 04:53:46;;;;;;;7.97;7.30;;;19.90;99.90;;;;;;5082034;28;21020;-81
2022/08/18 04:56:24;;;;;;;7.17;6.77;;;19.80;99.90;;;;;;5082978;28;21309;-81
2022/08/18 04:58:52;;;;;;;7.47;6.97;;;19.80;99.90;;;;;;5079166;28;20645;-82
2022/08/18 05:01:21;;;;;;;7.87;7.20;;;19.70;99.90;;;;;;5083222;28;20628;-82
2022/08/18 05:03:51;;;;;;;8.73;7.93;;;19.60;99.90;;;;;;5086542;28;21173;-81
2022/08/18 05:06:18;;;;;;;8.23;7.60;;;19.60;99.90;;;;;;5085488;28;20662;-81
2022/08/18 05:08:47;;;;;;;9.00;8.40;;;19.60;99.90;;;;;;5084138;28;20616;-81
2022/08/18 05:11:14;;;;;;;8.17;7.47;;;19.60;99.90;;;;;;5086579;28;20961;-81
2022/08/18 05:13:41;;;;;;;9.87;9.13;;;19.60;99.90;;;;;;5079119;28;21074;-82
2022/08/18 05:16:09;;;;;;;9.33;8.53;;;19.60;99.90;;;;;;5085478;28;20686;-82
2022/08/18 05:18:39;;;;;;;8.07;7.47;;;19.70;99.90;;;;;;5081133;28;20711;-82
2022/08/18 05:21:10;;;;;;;7.47;6.97;;;19.70;99.90;;;;;;5083746;28;20682;-81
2022/08/18 05:23:37;;;;;;;7.83;7.33;;;19.80;99.90;;;;;;5087188;28;20651;-81
2022/08/18 05:26:05;;;;;;;8.00;7.40;;;19.80;99.90;;;;;;5084746;28;20647;-81
2022/08/18 05:28:35;;;;;;;8.27;7.53;;;19.80;99.90;;;;;;5085248;28;20655;-81
2022/08/18 05:31:06;;;;;;;7.07;6.57;;;19.80;99.90;;;;;;5079379;28;20651;-82
2022/08/18 05:33:33;;;;;;;7.80;7.20;;;19.80;99.90;;;;;;5076999;28;20655;-81
2022/08/18 05:36:03;;;;;;;9.50;8.87;;;19.80;99.90;;;;;;5080980;28;21209;-82
2022/08/18 05:38:45;;;;;;;10.50;9.83;;;19.80;99.90;;;;;;5080081;28;20613;-81
2022/08/18 05:41:22;;;;;;;10.17;9.17;;;19.80;99.90;;;;;;5084407;28;20612;-81
2022/08/18 05:43:49;;;;;;;10.13;9.03;;;19.80;99.90;;;;;;5085124;28;20639;-82
2022/08/18 05:46:17;;;;;;;10.47;9.87;;;19.70;99.90;;;;;;5086522;28;20662;-81
2022/08/18 05:48:44;;;;;;;11.40;10.43;;;19.70;99.90;;;;;;5087738;28;20710;-81
2022/08/18 05:51:16;;;;;;;9.60;8.83;;;19.70;99.90;;;;;;5081647;28;20963;-81
2022/08/18 05:56:46;;;;;;;10.80;9.90;;;19.80;99.90;;;;;;5084705;28;20726;-81
2022/08/18 05:59:17;;;;;;;9.87;9.27;;;19.80;99.90;;;;;;5084073;28;20628;-82
2022/08/18 06:01:51;;;;;;;10.73;9.80;;;19.90;99.90;;;;;;5083906;28;20620;-81
2022/08/18 06:04:26;;;;;;;12.13;11.00;;;19.90;99.90;;;;;;5079315;28;20693;-82
2022/08/18 06:06:56;;;;;;;10.73;9.90;;;20.00;99.90;;;;;;5083890;28;20705;-81
2022/08/18 06:09:32;;;;;;;9.10;8.30;;;20.00;99.90;;;;;;5083387;28;20636;-81
2022/08/18 06:12:07;;;;;;;9.30;8.50;;;20.00;99.90;;;;;;5085139;28;20704;-81
2022/08/18 06:14:38;;;;;;;7.97;7.17;;;20.00;99.90;;;;;;5084296;28;20687;-81
2022/08/18 06:17:16;;;;;;;10.30;9.57;;;20.10;99.90;;;;;;5080170;28;20616;-81
2022/08/18 06:19:50;;;;;;;9.10;8.30;;;20.20;99.90;;;;;;5081167;28;20623;-81
2022/08/18 06:22:25;;;;;;;7.60;7.00;;;20.20;99.90;;;;;;5085698;28;20781;-81
2022/08/18 06:25:01;;;;;;;9.07;8.13;;;20.20;99.90;;;;;;5083534;28;20651;-81
2022/08/18 06:27:39;;;;;;;8.57;7.87;;;20.30;99.90;;;;;;5081124;28;20703;-81
2022/08/18 06:30:14;;;;;;;9.87;9.13;;;20.30;99.90;;;;;;5086594;28;20693;-81
2022/08/18 06:33:09;;;;;;;10.87;9.73;;;20.30;99.90;;;;;;5078321;28;20643;-81
2022/08/18 06:35:42;;;;;;;9.30;8.70;;;20.40;99.90;;;;;;5083698;28;21037;-80
2022/08/18 06:38:38;;;;;;;9.10;8.50;;;20.40;99.90;;;;;;5086729;28;21187;-80
2022/08/18 06:41:14;;;;;;;10.17;9.47;;;20.40;99.90;;;;;;5086608;28;20630;-80
2022/08/18 06:43:52;;;;;;;10.13;9.30;;;20.50;99.90;;;;;;5082750;28;20647;-80
2022/08/18 06:46:27;;;;;;;9.97;9.27;;;20.60;99.90;;;;;;5081863;28;20690;-80
2022/08/18 06:48:58;;;;;;;10.47;9.57;;;20.60;99.90;;;;;;5085269;28;20611;-80
2022/08/18 06:51:27;;;;;;;8.57;7.87;;;20.60;99.90;;;;;;5085621;28;20630;-80
2022/08/18 06:54:00;;;;;;;8.40;7.60;;;20.70;99.90;;;;;;5080376;28;20640;-80
2022/08/18 06:56:44;;;;;;;8.13;7.40;;;20.80;99.90;;;;;;5083036;28;20649;-80
2022/08/18 06:59:19;;;;;;;9.30;8.50;;;20.70;99.90;;;;;;5079361;28;20620;-80
2022/08/18 07:01:50;;;;;;;11.83;8.93;;;20.80;99.90;;;;;;5084931;28;20645;-80
2022/08/18 07:04:37;;;;;;;8.90;8.13;;;20.80;99.90;;;;;;5079624;28;21014;-80
2022/08/18 07:07:20;;;;;;;9.33;7.80;;;21.00;99.90;;;;;;5085196;28;20660;-80
2022/08/18 07:09:48;;;;;;;8.33;7.63;;;21.10;99.90;;;;;;5083173;28;20627;-80
2022/08/18 07:12:24;;;;;;;8.40;7.60;;;21.10;99.90;;;;;;5084084;28;20640;-80
2022/08/18 07:14:53;;;;;;;11.03;8.57;;;21.10;99.90;;;;;;5086334;28;20659;-80
2022/08/18 07:17:23;;;;;;;9.00;8.10;;;21.10;99.90;;;;;;5079705;28;21233;-80
2022/08/18 07:19:57;;;;;;;9.07;8.30;;;21.00;99.90;;;;;;5079508;28;21186;-80
2022/08/18 07:22:25;;;;;;;8.97;8.07;;;21.00;99.90;;;;;;5085054;28;20636;-80
2022/08/18 07:24:54;;;;;;;9.70;8.90;;;21.10;99.90;;;;;;5083768;28;20624;-80
2022/08/18 07:27:40;;;;;;;9.53;8.73;;;21.20;99.90;;;;;;5082001;28;20659;-81
2022/08/18 07:30:10;;;;;;;8.90;8.20;;;21.30;99.90;;;;;;5085533;28;20696;-80
2022/08/18 07:32:43;;;;;;;7.90;7.20;;;21.30;99.90;;;;;;5080446;28;20616;-81
2022/08/18 07:35:15;;;;;;;9.07;8.17;;;21.20;99.90;;;;;;5082874;28;20699;-80
2022/08/18 07:37:48;;;;;;;8.33;6.97;;;21.20;99.90;;;;;;5078717;28;20628;-81
2022/08/18 07:40:23;;;;;;;10.87;9.97;;;21.30;99.90;;;;;;5080968;28;21248;-80
2022/08/18 07:42:58;;;;;;;10.27;9.57;;;21.20;99.90;;;;;;5084601;28;20714;-80
2022/08/18 07:45:31;;;;;;;9.60;8.90;;;21.10;99.90;;;;;;5078862;28;20658;-80
2022/08/18 07:48:04;;;;;;;10.27;9.47;;;21.20;99.90;;;;;;5083725;28;20625;-81
2022/08/18 07:50:37;;;;;;;10.87;10.07;;;21.10;99.90;;;;;;5082563;28;20635;-80
2022/08/18 07:53:12;;;;;;;9.03;8.33;;;21.00;99.90;;;;;;5082302;28;21206;-80
2022/08/18 07:55:45;;;;;;;10.00;9.30;;;21.00;99.90;;;;;;5082034;28;20694;-81
2022/08/18 07:58:24;;;;;;;9.43;8.63;;;21.00;99.90;;;;;;5080088;28;20616;-80
2022/08/18 08:00:59;;;;;;;9.53;8.93;;;21.00;99.90;;;;;;5078570;28;20618;-80
2022/08/18 08:03:34;;;;;;;8.63;7.93;;;21.10;99.90;;;;;;5083070;28;20730;-80
2022/08/18 08:06:08;;;;;;;8.07;7.33;;;21.00;99.90;;;;;;5078542;28;20644;-80
2022/08/18 08:08:41;;;;;;;8.30;7.60;;;20.90;99.90;;;;;;5084702;28;20675;-81
2022/08/18 08:11:20;;;;;;;8.23;7.30;;;20.80;99.90;;;;;;5079475;28;20635;-80
2022/08/18 08:14:05;;;;;;;7.70;7.10;;;20.80;99.90;;;;;;5081790;28;20619;-81
2022/08/18 08:16:44;;;;;;;8.30;7.60;;;20.80;99.90;;;;;;5082933;28;20653;-81
2022/08/18 08:19:42;;;;;;;8.80;7.93;;;20.90;99.90;;;;;;5083861;28;20719;-81
2022/08/18 08:22:16;;;;;;;7.37;6.87;;;20.90;99.90;;;;;;5073095;28;20646;-81
2022/08/18 08:24:52;;;;;;;11.40;8.30;;;21.00;99.90;;;;;;5077464;28;20627;-80
2022/08/18 08:27:24;;;;;;;8.60;7.70;;;21.10;99.90;;;;;;5080528;28;21482;-81
2022/08/18 08:29:58;;;;;;;8.50;7.70;;;21.00;99.90;;;;;;5085083;28;20620;-81
2022/08/18 08:32:34;;;;;;;10.07;7.90;;;21.10;99.90;;;;;;5075732;28;21346;-81
2022/08/18 08:35:08;;;;;;;8.47;7.70;;;21.30;99.90;;;;;;5082113;28;20702;-81
2022/08/18 08:37:43;;;;;;;11.07;9.93;;;21.40;99.90;;;;;;5080280;28;20628;-81
2022/08/18 08:40:17;;;;;;;8.20;7.40;;;21.40;99.90;;;;;;5081154;28;20684;-81
2022/08/18 08:42:51;;;;;;;8.33;7.70;;;21.40;99.90;;;;;;5081275;28;20615;-81
2022/08/18 08:45:24;;;;;;;7.47;6.87;;;21.50;99.90;;;;;;5078737;28;20619;-81
2022/08/18 08:47:59;;;;;;;9.63;8.93;;;21.60;99.90;;;;;;5083368;28;20622;-81
2022/08/18 08:50:28;;;;;;;9.03;8.20;;;21.60;99.90;;;;;;5083721;28;20634;-81
2022/08/18 08:52:59;;;;;;;8.67;7.97;;;21.70;99.90;;;;;;5079537;28;20636;-81
2022/08/18 08:55:29;;;;;;;8.50;7.67;;;21.80;99.90;;;;;;5083451;28;21085;-81
2022/08/18 08:58:10;;;;;;;8.37;7.70;;;22.00;99.90;;;;;;5079153;28;21173;-81
2022/08/18 09:00:40;;;;;;;6.83;6.20;;;22.00;99.90;;;;;;5083175;28;20691;-81
2022/08/18 09:03:20;;;;;;;9.30;8.60;;;22.20;99.90;;;;;;5081847;28;21059;-81
2022/08/18 09:05:55;;;;;;;8.03;7.33;;;22.50;99.90;;;;;;5077714;28;20641;-81
2022/08/18 09:08:43;;;;;;;9.13;8.23;;;22.60;99.90;;;;;;5081788;28;21288;-81
2022/08/18 09:11:26;;;;;;;9.33;8.57;;;22.80;99.90;;;;;;5081012;28;20638;-81
2022/08/18 09:14:29;;;;;;;12.20;8.13;;;22.90;99.90;;;;;;5086037;28;20972;-81
2022/08/18 09:17:16;;;;;;;8.83;8.07;;;23.20;99.90;;;;;;5085755;28;20643;-81
2022/08/18 09:19:58;;;;;;;8.80;8.10;;;23.30;99.90;;;;;;5084858;28;20620;-81
2022/08/18 09:22:36;;;;;;;8.90;8.10;;;23.60;99.90;;;;;;5087509;28;20632;-81
2022/08/18 09:25:10;;;;;;;8.07;7.47;;;23.80;99.90;;;;;;5082786;28;20624;-82
2022/08/18 09:27:42;;;;;;;7.87;7.27;;;23.90;99.90;;;;;;5086989;28;21115;-82
2022/08/18 09:30:38;;;;;;;7.97;7.27;;;23.80;99.90;;;;;;5085270;28;20694;-82
2022/08/18 09:33:23;;;;;;;9.10;8.40;;;23.90;99.90;;;;;;5082589;28;20630;-82
2022/08/18 09:36:04;;;;;;;7.67;7.07;;;24.00;99.90;;;;;;5083341;28;21176;-81
2022/08/18 09:41:32;;;;;;;6.87;6.37;;;24.20;99.90;;;;;;5087000;28;21154;-81
2022/08/18 09:44:13;;;;;;;8.97;8.17;;;24.30;99.90;;;;;;5087358;28;20712;-82
2022/08/18 09:46:58;;;;;;;8.43;7.83;;;24.40;99.90;;;;;;5085726;28;21100;-80
2022/08/18 09:49:48;;;;;;;9.67;8.93;;;24.40;99.90;;;;;;5084489;28;20622;-80
2022/08/18 09:52:48;;;;;;;7.73;7.23;;;24.30;99.90;;;;;;5073848;28;20997;-80
2022/08/18 09:55:38;;;;;;;8.37;7.77;;;24.40;99.90;;;;;;5023246;28;20655;-80
2022/08/18 09:58:18;;;;;;;8.93;8.20;;;24.50;99.90;;;;;;5080919;28;20671;-81
2022/08/18 10:01:05;;;;;;;7.87;7.37;;;24.60;99.90;;;;;;5080212;28;20624;-81
2022/08/18 10:03:33;;;;;;;8.30;7.60;;;24.60;99.90;;;;;;5083333;28;20632;-80
2022/08/18 10:06:12;;;;;;;9.23;8.40;;;24.70;99.90;;;;;;5086618;28;20661;-82
2022/08/18 10:09:18;;;;;;;9.53;8.83;;;24.80;99.90;;;;;;5083884;28;20623;-82
2022/08/18 10:12:01;;;;;;;9.73;7.83;;;24.90;99.90;;;;;;5084551;28;20642;-80
2022/08/18 10:14:50;;;;;;;9.00;8.40;;;25.00;99.90;;;;;;5082792;28;20644;-80
2022/08/18 10:17:32;;;;;;;9.37;8.30;;;25.10;99.90;;;;;;5082636;28;20658;-80
2022/08/18 10:20:19;;;;;;;9.00;8.30;;;25.10;99.90;;;;;;5081604;28;20639;-80
2022/08/18 10:22:48;;;;;;;8.80;8.07;;;25.50;99.90;;;;;;5080460;28;20624;-81
2022/08/18 10:25:33;;;;;;;8.80;8.07;;;25.60;99.90;;;;;;5081937;28;20610;-81
2022/08/18 10:28:04;;;;;;;10.10;8.27;;;25.80;99.90;;;;;;5084853;28;20618;-81
2022/08/18 10:31:06;;;;;;;7.53;6.83;;;26.00;99.90;;;;;;5084671;28;21423;-81
2022/08/18 10:34:05;;;;;;;10.10;9.30;;;26.20;99.90;;;;;;5084841;28;20628;-81
2022/08/18 10:36:52;;;;;;;10.40;9.57;;;26.30;99.90;;;;;;5000116;28;20751;-80
2022/08/18 10:39:22;;;;;;;10.73;9.87;;;26.30;99.90;;;;;;5077650;28;21014;-81
2022/08/18 10:42:06;;;;;;;9.97;9.17;;;26.20;99.90;;;;;;5085076;28;20600;-81
2022/08/18 10:44:40;;;;;;;9.33;8.40;;;26.20;99.90;;;;;;5084036;28;20621;-81
2022/08/18 10:47:07;;;;;;;8.80;8.10;;;26.30;99.90;;;;;;5086139;28;20654;-81
2022/08/18 10:49:36;;;;;;;9.30;8.50;;;26.40;99.90;;;;;;5085003;28;20639;-81
2022/08/18 10:52:32;;;;;;;10.37;9.30;;;26.40;99.90;;;;;;5081781;28;20705;-81
2022/08/18 10:55:19;;;;;;;7.70;7.20;;;26.50;99.90;;;;;;5084263;28;20631;-81
2022/08/18 10:58:21;;;;;;;7.93;7.33;;;26.50;99.90;;;;;;5078429;28;20635;-81
2022/08/18 11:01:13;;;;;;;8.50;7.83;;;26.70;99.90;;;;;;5081986;28;20653;-81
2022/08/18 11:04:00;;;;;;;9.60;8.80;;;26.90;99.90;;;;;;5079616;28;20628;-81
2022/08/18 11:06:27;;;;;;;8.60;7.90;;;27.20;99.90;;;;;;5082644;28;20683;-81
2022/08/18 11:08:58;;;;;;;8.63;8.03;;;27.50;99.90;;;;;;5086449;28;20623;-81
2022/08/18 11:11:31;;;;;;;9.00;8.37;;;27.70;99.90;;;;;;5082980;28;20636;-81
2022/08/18 11:14:10;;;;;;;8.63;7.70;;;27.80;99.90;;;;;;5085111;28;20985;-81
2022/08/18 11:16:47;;;;;;;8.20;7.70;;;27.90;99.90;;;;;;5085972;28;20679;-81
2022/08/18 11:19:16;;;;;;;9.53;8.80;;;28.00;99.90;;;;;;5080792;28;21019;-80
2022/08/18 11:21:45;;;;;;;8.93;8.27;;;28.10;98.60;;;;;;5086509;28;20628;-80
2022/08/18 11:24:16;;;;;;;9.00;8.30;;;28.30;98.90;;;;;;5078128;28;20638;-81
2022/08/18 11:26:45;;;;;;;8.60;8.03;;;28.60;98.80;;;;;;5078506;28;20648;-81
2022/08/18 11:29:21;;;;;;;8.40;7.57;;;28.80;96.30;;;;;;5085685;28;21200;-81
2022/08/18 11:31:49;;;;;;;7.80;7.20;;;29.20;95.50;;;;;;5079601;28;20968;-80
2022/08/18 11:34:21;;;;;;;8.77;8.27;;;29.50;93.60;;;;;;5082306;28;20627;-81
2022/08/18 11:36:56;;;;;;;8.40;7.80;;;29.70;92.80;;;;;;5081195;28;20684;-81
2022/08/18 11:39:24;;;;;;;8.77;8.17;;;30.00;91.80;;;;;;5086093;28;21001;-81
2022/08/18 11:41:52;;;;;;;9.07;8.40;;;30.40;90.60;;;;;;5084872;28;21203;-81
2022/08/18 11:44:23;;;;;;;10.70;9.90;;;30.70;90.30;;;;;;5083866;28;20650;-81
2022/08/18 11:46:56;;;;;;;8.37;7.80;;;30.80;86.00;;;;;;5082265;28;20652;-81
2022/08/18 11:49:31;;;;;;;11.00;9.70;;;30.70;86.60;;;;;;5083856;28;20873;-80
2022/08/18 11:52:01;;;;;;;9.70;9.00;;;30.50;85.60;;;;;;5083393;28;20627;-81
2022/08/18 11:54:39;;;;;;;10.63;9.97;;;30.60;85.50;;;;;;5082819;28;20732;-81
2022/08/18 11:57:51;;;;;;;10.57;9.67;;;30.70;84.50;;;;;;5083268;28;20680;-81
2022/08/18 12:00:41;;;;;;;10.00;9.27;;;30.70;82.60;;;;;;5083361;28;20608;-81
2022/08/18 12:03:26;;;;;;;8.80;8.10;;;30.70;82.60;;;;;;5081039;28;20611;-80
2022/08/18 12:05:56;;;;;;;9.37;8.57;;;30.60;83.20;;;;;;5078220;28;20683;-81
2022/08/18 12:08:32;;;;;;;8.33;7.70;;;30.50;82.80;;;;;;5084463;28;20624;-81
2022/08/18 12:11:07;;;;;;;9.00;8.30;;;30.40;82.70;;;;;;5082447;28;20612;-81
2022/08/18 12:13:35;;;;;;;8.50;8.00;;;30.50;81.50;;;;;;5083395;28;21050;-81
2022/08/18 12:16:13;;;;;;;9.40;8.27;;;30.60;81.80;;;;;;5082239;28;20675;-81
2022/08/18 12:18:41;;;;;;;9.87;9.07;;;30.70;81.90;;;;;;5080406;28;20639;-81
2022/08/18 12:21:08;;;;;;;8.43;7.90;;;30.80;78.90;;;;;;5084816;28;20647;-81
2022/08/18 12:23:36;;;;;;;8.13;7.53;;;30.70;79.90;;;;;;5080279;28;20625;-81
2022/08/18 12:26:05;;;;;;;8.33;7.87;;;30.90;80.50;;;;;;5079454;28;20644;-80
2022/08/18 12:28:32;;;;;;;8.13;7.63;;;31.20;78.70;;;;;;5084692;28;21182;-80
2022/08/18 12:30:59;;;;;;;8.00;7.50;;;31.50;75.20;;;;;;5085213;28;20620;-80
2022/08/18 12:33:26;;;;;;;9.10;8.40;;;31.80;74.50;;;;;;5083083;28;20632;-81
2022/08/18 12:35:53;;;;;;;9.77;9.07;;;32.00;73.60;;;;;;5083783;28;21284;-82
2022/08/18 12:38:19;;;;;;;8.33;7.83;;;32.00;71.50;;;;;;5083085;28;20742;-81
2022/08/18 12:40:46;;;;;;;9.23;8.63;;;31.70;72.30;;;;;;5085213;28;20730;-82
2022/08/18 12:43:14;;;;;;;7.80;7.20;;;31.70;72.30;;;;;;5084926;28;20714;-82
2022/08/18 12:45:41;;;;;;;8.70;8.00;;;32.00;72.50;;;;;;5079699;28;20647;-80
2022/08/18 12:48:09;;;;;;;8.50;7.90;;;32.10;69.30;;;;;;5082227;28;20770;-81
2022/08/18 12:50:36;;;;;;;8.87;8.27;;;32.30;69.20;;;;;;5084201;28;20744;-81
2022/08/18 12:53:03;;;;;;;8.63;7.77;;;32.40;69.40;;;;;;5079226;28;20635;-81
2022/08/18 12:55:35;;;;;;;8.50;8.00;;;32.10;69.00;;;;;;5084629;28;20662;-82
2022/08/18 12:58:04;;;;;;;9.23;8.33;;;32.30;68.20;;;;;;5070377;28;20654;-80
2022/08/18 13:00:32;;;;;;;8.37;7.87;;;32.10;68.00;;;;;;5078568;28;20666;-81
2022/08/18 13:02:59;;;;;;;7.73;7.13;;;32.30;66.80;;;;;;5080051;28;20669;-82
2022/08/18 13:05:27;;;;;;;8.50;7.80;;;32.70;66.60;;;;;;5078877;28;20669;-81
2022/08/18 13:07:54;;;;;;;9.10;8.40;;;33.20;64.90;;;;;;5069278;28;20735;-81
2022/08/18 13:10:21;;;;;;;8.13;7.50;;;33.50;64.00;;;;;;5080197;28;20640;-81
2022/08/18 13:12:48;;;;;;;7.83;7.33;;;33.40;63.50;;;;;;5080891;28;20627;-81
2022/08/18 13:15:15;;;;;;;7.87;7.33;;;33.60;63.20;;;;;;5083559;28;20644;-81
2022/08/18 13:17:43;;;;;;;8.37;7.77;;;33.50;62.10;;;;;;5081382;28;20671;-81
2022/08/18 13:20:14;;;;;;;8.40;7.70;;;33.30;61.40;;;;;;5077781;28;20623;-81
2022/08/18 13:22:41;;;;;;;8.33;7.37;;;33.30;62.20;;;;;;5077786;28;20615;-82
2022/08/18 13:25:10;;;;;;;8.60;8.03;;;33.30;61.80;;;;;;5076382;28;20635;-82
2022/08/18 13:27:38;;;;;;;8.97;8.37;;;33.50;61.80;;;;;;5077126;28;20655;-82